createdAt,value
2022-12-14T00:01:31.365Z,3.52
2022-12-14T00:08:21.414Z,3.70
2022-12-14T00:15:07.803Z,3.92
2022-12-14T00:21:53.467Z,3.95
2022-12-14T00:28:41.847Z,3.97
2022-12-14T00:35:27.596Z,3.99
2022-12-14T00:42:13.059Z,4.05
2022-12-14T00:49:01.037Z,4.01
2022-12-14T00:55:49.212Z,3.88
2022-12-14T01:02:35.248Z,3.89
2022-12-14T01:09:26.259Z,3.84
2022-12-14T01:16:14.506Z,3.74
2022-12-14T01:23:00.317Z,3.64
2022-12-14T01:29:48.765Z,3.69
2022-12-14T01:36:38.259Z,3.62
2022-12-14T01:43:24.024Z,3.62
2022-12-14T01:50:22.288Z,3.60
2022-12-14T01:57:07.936Z,3.54
2022-12-14T02:03:56.169Z,3.73
2022-12-14T02:10:44.580Z,3.69
2022-12-14T02:17:31.352Z,3.72
2022-12-14T02:25:12.468Z,3.83
2022-12-14T02:32:17.850Z,3.95
2022-12-14T02:39:12.709Z,3.93
2022-12-14T02:46:06.408Z,4.15
2022-12-14T02:53:05.101Z,4.14
2022-12-14T02:59:53.329Z,4.15
2022-12-14T03:06:38.844Z,4.26
2022-12-14T03:13:32.016Z,4.32
2022-12-14T03:20:22.557Z,4.27
2022-12-14T03:27:12.576Z,3.34
2022-12-14T03:34:05.655Z,4.32
2022-12-14T03:41:10.140Z,4.38
2022-12-14T04:01:28.366Z,4.31
2022-12-14T04:08:22.814Z,4.28
2022-12-14T04:15:27.320Z,4.13
2022-12-14T04:22:20.715Z,3.65
2022-12-14T04:29:24.858Z,3.87
2022-12-14T04:36:11.350Z,3.84
2022-12-14T04:43:04.352Z,3.67
2022-12-14T04:49:55.658Z,3.77
2022-12-14T04:56:49.235Z,3.82
2022-12-14T05:03:40.611Z,3.72
2022-12-14T05:10:37.905Z,3.66
2022-12-14T05:17:24.139Z,3.63
2022-12-14T05:24:12.316Z,3.57
2022-12-14T05:30:58.151Z,3.46
2022-12-14T05:37:43.793Z,3.37
2022-12-14T05:44:32.147Z,3.38
2022-12-14T05:51:17.521Z,3.28
2022-12-14T05:58:03.187Z,3.34
2022-12-14T06:04:51.215Z,3.31
2022-12-14T06:11:40.683Z,3.38
2022-12-14T06:18:26.179Z,3.45
2022-12-14T06:25:14.407Z,3.58
2022-12-14T06:31:59.855Z,3.62
2022-12-14T06:38:45.346Z,3.63
2022-12-14T06:45:34.548Z,3.74
2022-12-14T06:52:26.470Z,3.72
2022-12-14T06:59:13.472Z,3.61
2022-12-14T07:06:03.568Z,3.44
2022-12-14T07:12:48.959Z,3.24
2022-12-14T07:19:34.315Z,3.31
2022-12-14T07:26:24.266Z,3.32
2022-12-14T07:33:10.276Z,3.40
2022-12-14T07:39:55.718Z,3.67
2022-12-14T07:46:44.422Z,3.75
2022-12-14T07:53:30.085Z,4.01
2022-12-14T08:00:17.365Z,4.11
2022-12-14T08:07:05.241Z,4.53
2022-12-14T08:13:50.572Z,4.18
2022-12-14T08:20:36.289Z,4.19
2022-12-14T08:27:24.233Z,4.13
2022-12-14T08:34:10.071Z,3.82
2022-12-14T08:40:55.592Z,3.90
2022-12-14T08:47:43.597Z,3.90
2022-12-14T08:54:28.944Z,3.89
2022-12-14T09:01:17.268Z,3.86
2022-12-14T09:08:05.375Z,3.86
2022-12-14T09:14:50.870Z,3.89
2022-12-14T09:21:36.605Z,3.79
2022-12-14T09:28:24.926Z,3.85
2022-12-14T09:35:11.258Z,3.69
2022-12-14T09:42:10.088Z,3.67
2022-12-14T09:48:59.968Z,3.64
2022-12-14T09:55:49.150Z,3.76
2022-12-14T10:02:55.682Z,3.68
2022-12-14T10:09:51.561Z,3.61
2022-12-14T10:16:52.051Z,3.50
2022-12-14T10:23:39.040Z,3.44
2022-12-14T10:30:27.047Z,3.37
2022-12-14T10:37:28.333Z,3.16
2022-12-14T10:44:23.785Z,3.10
2022-12-14T10:51:17.166Z,3.21
2022-12-14T10:58:03.283Z,3.13
2022-12-14T11:04:53.717Z,3.26
2022-12-14T11:11:43.068Z,3.13
2022-12-14T11:18:34.193Z,3.23
2022-12-14T11:25:38.950Z,3.29
2022-12-14T11:32:28.573Z,3.30
2022-12-14T11:39:25.915Z,3.41
2022-12-14T11:46:11.579Z,3.49
2022-12-14T11:53:11.544Z,3.40
2022-12-14T12:00:00.644Z,3.53
2022-12-14T12:06:46.246Z,3.68
2022-12-14T12:13:39.823Z,3.62
2022-12-14T12:20:32.120Z,3.66
2022-12-14T12:27:19.431Z,3.87
2022-12-14T12:34:15.122Z,3.95
2022-12-14T12:41:08.813Z,4.11
2022-12-14T12:47:58.844Z,4.15
2022-12-14T12:54:57.204Z,4.31
2022-12-14T13:01:48.150Z,4.32
2022-12-14T13:08:39.227Z,4.45
2022-12-14T13:15:32.877Z,4.50
2022-12-14T13:22:25.241Z,4.41
2022-12-14T13:29:21.061Z,4.34
2022-12-14T13:36:40.229Z,4.52
2022-12-14T13:43:51.845Z,4.51
2022-12-14T13:50:52.935Z,4.44
2022-12-14T13:57:47.565Z,4.39
2022-12-14T14:04:36.459Z,4.24
2022-12-14T14:11:52.299Z,4.78
2022-12-14T14:18:51.102Z,4.61
2022-12-14T14:25:46.666Z,4.62
2022-12-14T14:32:43.855Z,4.60
2022-12-14T14:39:56.162Z,4.59
2022-12-14T14:46:49.223Z,4.62
2022-12-14T14:53:37.014Z,3.98
2022-12-14T15:00:25.590Z,4.75
2022-12-14T15:07:16.526Z,4.88
2022-12-14T15:14:06.944Z,4.96
2022-12-14T15:21:07.605Z,4.94
2022-12-14T15:27:53.432Z,5.06
2022-12-14T15:34:38.975Z,5.08
2022-12-14T15:41:30.368Z,5.16
2022-12-14T15:48:16.979Z,5.26
2022-12-14T15:55:03.168Z,5.40
2022-12-14T16:01:56.026Z,5.35
2022-12-14T16:08:50.519Z,5.31
2022-12-14T16:15:36.298Z,5.22
2022-12-14T16:22:27.897Z,5.43
2022-12-14T16:29:26.479Z,5.39
2022-12-14T16:36:25.088Z,5.50
2022-12-14T16:43:32.110Z,4.98
2022-12-14T16:50:55.652Z,5.95
2022-12-14T16:57:30.615Z,5.84
2022-12-14T17:04:20.390Z,5.83
2022-12-14T17:11:06.550Z,5.20
2022-12-14T17:17:55.556Z,5.84
2022-12-14T17:24:43.554Z,5.79
2022-12-14T17:31:31.167Z,5.89
2022-12-14T17:38:18.625Z,5.86
2022-12-14T17:45:07.690Z,5.55
2022-12-14T17:51:53.300Z,5.68
2022-12-14T17:58:38.701Z,5.57
2022-12-14T18:05:26.865Z,5.47
2022-12-14T18:12:25.448Z,5.54
2022-12-14T18:19:10.908Z,5.37
2022-12-14T18:26:04.096Z,5.45
2022-12-14T18:32:49.536Z,5.46
2022-12-14T18:39:35.053Z,5.61
2022-12-14T18:46:23.045Z,5.46
2022-12-14T18:53:09.119Z,5.49
2022-12-14T18:59:54.787Z,5.43
2022-12-14T19:06:44.471Z,5.23
2022-12-14T19:13:33.285Z,5.18
2022-12-14T19:20:23.265Z,5.16
2022-12-14T19:27:11.635Z,5.00
2022-12-14T19:33:57.002Z,4.95
2022-12-14T19:40:43.550Z,4.76
2022-12-14T19:47:31.592Z,4.80
2022-12-14T19:54:17.062Z,4.58
2022-12-14T20:01:02.469Z,4.13
2022-12-14T20:07:50.650Z,4.47
2022-12-14T20:14:39.858Z,4.42
2022-12-14T20:21:29.227Z,4.37
2022-12-14T20:28:18.127Z,3.77
2022-12-14T20:35:05.532Z,4.35
2022-12-14T20:41:50.903Z,4.15
2022-12-14T20:48:41.280Z,4.17
2022-12-14T20:55:26.971Z,4.03
2022-12-14T21:02:20.828Z,3.97
2022-12-14T21:09:12.176Z,3.79
2022-12-14T21:15:57.773Z,3.73
2022-12-14T21:22:43.239Z,3.74
2022-12-14T21:29:31.278Z,3.56
2022-12-14T21:36:17.360Z,3.51
2022-12-14T21:43:04.080Z,3.37
2022-12-14T21:49:52.440Z,2.81
2022-12-14T21:56:53.304Z,3.35
2022-12-14T22:03:38.848Z,3.25
2022-12-14T22:10:27.125Z,3.26
2022-12-14T22:17:15.355Z,3.41
2022-12-14T22:24:02.070Z,3.37
2022-12-14T22:30:50.052Z,3.42
2022-12-14T22:37:35.720Z,3.45
2022-12-14T22:44:21.105Z,3.57
2022-12-14T22:51:11.763Z,3.67
2022-12-14T22:57:58.250Z,3.67
2022-12-14T23:04:43.828Z,3.74
2022-12-14T23:11:44.855Z,3.11
2022-12-14T23:18:42.812Z,3.76
2022-12-14T23:25:40.692Z,3.79
2022-12-14T23:32:41.127Z,3.75
2022-12-14T23:39:39.054Z,3.80
2022-12-14T23:46:37.030Z,3.76
2022-12-14T23:53:37.525Z,3.58
